Time;durP1;ratioP1;P1;durP2;ratioP2;P2;SDS_P1;SDS_P2;PMS_P1;PMS_P2;Temp;Humidity;BMP_temperature;BMP_pressure;BME280_temperature;BME280_humidity;BME280_pressure;Samples;Min_cycle;Max_cycle;Signal;HPM_P1;HPM_P2
2023/04/20 00:02:16;;;;;;;13.73;8.30;;;;;;;18.61;42.00;102555.03;5079755;28;20051;-40
2023/04/20 00:04:43;;;;;;;12.20;7.65;;;;;;;18.61;42.16;102558.59;5083501;28;20043;-38
2023/04/20 00:07:10;;;;;;;13.68;7.97;;;;;;;18.58;42.08;102549.94;5081735;28;20088;-36
2023/04/20 00:09:36;;;;;;;12.20;7.13;;;;;;;18.57;42.33;102543.66;5085268;28;20078;-36
2023/04/20 00:12:03;;;;;;;12.20;7.10;;;;;;;18.63;42.44;102540.53;5082992;28;20052;-39
2023/04/20 00:14:30;;;;;;;13.63;8.05;;;;;;;18.71;42.59;102540.84;5079518;28;20079;-39
2023/04/20 00:16:56;;;;;;;12.52;7.72;;;;;;;18.81;42.41;102542.81;5080808;28;20048;-39
2023/04/20 00:19:24;;;;;;;12.20;7.57;;;;;;;18.91;42.35;102538.47;5081778;28;20052;-40
2023/04/20 00:21:51;;;;;;;13.60;8.05;;;;;;;19.01;41.97;102536.75;5079731;28;20065;-40
2023/04/20 00:24:18;;;;;;;11.00;7.22;;;;;;;19.08;42.03;102524.56;5077838;28;20063;-40
2023/04/20 00:26:44;;;;;;;12.95;8.02;;;;;;;19.16;41.91;102523.97;5079060;28;20046;-39
2023/04/20 00:29:11;;;;;;;12.60;7.63;;;;;;;19.20;41.39;102520.06;5084534;28;20052;-39
2023/04/20 00:31:38;;;;;;;11.68;7.28;;;;;;;19.23;41.44;102520.69;5082850;28;20051;-38
2023/04/20 00:34:04;;;;;;;10.93;7.03;;;;;;;19.24;41.84;102517.00;5083130;28;20060;-40
2023/04/20 00:36:31;;;;;;;10.88;6.85;;;;;;;19.24;40.91;102508.94;5080394;28;20051;-37
2023/04/20 00:38:58;;;;;;;12.10;7.80;;;;;;;19.24;41.40;102500.03;5082221;28;20052;-37
2023/04/20 00:41:24;;;;;;;12.20;6.97;;;;;;;19.18;41.30;102496.00;5079349;28;20048;-39
2023/04/20 00:43:52;;;;;;;10.10;6.53;;;;;;;19.11;42.08;102493.91;5084049;28;20041;-36
2023/04/20 00:46:20;;;;;;;13.27;6.93;;;;;;;19.04;41.47;102492.69;5080241;28;20040;-36
2023/04/20 00:48:50;;;;;;;10.18;6.70;;;;;;;18.95;41.98;102489.75;5085164;28;20051;-36
2023/04/20 00:51:18;;;;;;;9.32;6.22;;;;;;;18.87;41.78;102485.94;5082356;28;20058;-37
2023/04/20 00:53:45;;;;;;;8.82;5.80;;;;;;;18.79;42.35;102477.63;5078931;28;20203;-40
2023/04/20 00:56:15;;;;;;;10.20;5.97;;;;;;;18.71;42.72;102476.38;5079471;28;20073;-39
2023/04/20 00:58:42;;;;;;;10.90;6.93;;;;;;;18.64;42.90;102463.50;5079710;28;20044;-35
2023/04/20 01:01:10;;;;;;;10.27;6.60;;;;;;;18.59;42.70;102469.25;5082185;28;20048;-38
2023/04/20 01:03:38;;;;;;;11.23;6.75;;;;;;;18.52;42.84;102459.94;5083505;28;20052;-36
2023/04/20 01:06:06;;;;;;;10.85;6.88;;;;;;;18.47;42.63;102460.28;5079167;28;21386;-38
2023/04/20 01:08:32;;;;;;;10.15;6.32;;;;;;;18.43;43.24;102457.97;5081384;28;20320;-36
2023/04/20 01:10:59;;;;;;;9.88;6.03;;;;;;;18.39;42.96;102449.28;5080745;28;20056;-37
2023/04/20 01:13:25;;;;;;;9.18;5.90;;;;;;;18.36;43.40;102449.50;5081529;28;20122;-36
2023/04/20 01:15:52;;;;;;;9.57;6.10;;;;;;;18.34;43.62;102440.72;5075099;28;20450;-41
2023/04/20 01:18:19;;;;;;;9.45;6.13;;;;;;;18.33;43.45;102436.34;5080312;28;20059;-40
2023/04/20 01:20:46;;;;;;;11.10;6.32;;;;;;;18.34;43.79;102429.13;5085108;28;20048;-40
2023/04/20 01:23:13;;;;;;;11.63;6.40;;;;;;;18.34;43.30;102426.44;5084677;28;20166;-40
2023/04/20 01:25:40;;;;;;;10.35;6.57;;;;;;;18.34;43.63;102419.25;5083879;28;20127;-42
2023/04/20 01:28:08;;;;;;;10.50;6.13;;;;;;;18.36;43.29;102409.25;5078106;28;20048;-42
2023/04/20 01:30:36;;;;;;;9.85;6.15;;;;;;;18.38;43.36;102409.13;5080836;28;20105;-41
2023/04/20 01:33:03;;;;;;;9.23;5.63;;;;;;;18.40;43.15;102412.53;5084148;28;20051;-42
2023/04/20 01:35:29;;;;;;;10.60;6.07;;;;;;;18.40;43.19;102408.03;5082811;28;20063;-40
2023/04/20 01:37:56;;;;;;;9.43;5.95;;;;;;;18.43;43.59;102409.63;5080612;28;20181;-41
2023/04/20 01:40:23;;;;;;;9.82;5.82;;;;;;;18.44;43.40;102400.59;5081686;28;20339;-39
2023/04/20 01:42:49;;;;;;;9.98;6.13;;;;;;;18.45;43.22;102395.13;5073193;28;20048;-42
2023/04/20 01:45:16;;;;;;;8.95;6.00;;;;;;;18.46;43.04;102402.19;5073419;28;20180;-37
2023/04/20 01:47:42;;;;;;;9.48;5.60;;;;;;;18.43;43.69;102390.84;5080992;28;20048;-40
2023/04/20 01:50:09;;;;;;;8.95;5.68;;;;;;;18.42;43.46;102392.66;5077197;28;20517;-35
2023/04/20 01:52:36;;;;;;;8.57;5.60;;;;;;;18.44;43.53;102379.97;5077102;28;20151;-39
2023/04/20 01:55:02;;;;;;;8.88;5.15;;;;;;;18.51;43.44;102383.03;5081032;28;20139;-37
2023/04/20 01:57:29;;;;;;;8.48;5.18;;;;;;;18.57;43.29;102387.91;5081919;28;20047;-37
2023/04/20 01:59:55;;;;;;;8.00;5.35;;;;;;;18.63;43.19;102376.72;5082606;28;20040;-36
2023/04/20 02:02:22;;;;;;;8.52;5.35;;;;;;;18.66;42.78;102384.53;5082842;28;20052;-37
2023/04/20 02:04:49;;;;;;;10.35;6.00;;;;;;;18.70;42.95;102377.13;5084460;28;20051;-37
2023/04/20 02:07:15;;;;;;;8.35;5.55;;;;;;;18.76;42.62;102375.78;5085367;28;20077;-40
2023/04/20 02:09:42;;;;;;;10.20;5.78;;;;;;;18.82;42.86;102369.94;5081603;28;20052;-37
2023/04/20 02:12:09;;;;;;;9.10;5.55;;;;;;;18.86;42.85;102366.88;5087171;28;20048;-42
2023/04/20 02:14:35;;;;;;;8.35;5.32;;;;;;;18.90;42.47;102364.81;5085259;28;20076;-38
2023/04/20 02:17:02;;;;;;;8.82;5.60;;;;;;;18.93;42.81;102357.34;5089496;28;20048;-37
2023/04/20 02:19:29;;;;;;;9.32;5.13;;;;;;;18.96;42.75;102359.78;5085119;28;20402;-38
2023/04/20 02:21:55;;;;;;;7.50;4.57;;;;;;;19.01;42.26;102356.72;5087145;28;20048;-37
2023/04/20 02:24:22;;;;;;;7.63;4.85;;;;;;;19.04;42.36;102351.09;5083807;28;20055;-37
2023/04/20 02:26:48;;;;;;;7.68;4.47;;;;;;;19.05;42.68;102357.34;5080238;28;20338;-37
2023/04/20 02:29:15;;;;;;;7.47;4.75;;;;;;;19.06;42.43;102343.78;5085198;28;20127;-36
2023/04/20 02:31:43;;;;;;;7.32;4.78;;;;;;;19.07;42.37;102342.81;5084596;28;20097;-37
2023/04/20 02:34:09;;;;;;;7.63;5.03;;;;;;;19.09;42.66;102331.91;5085581;28;20106;-37
2023/04/20 02:36:36;;;;;;;7.40;4.57;;;;;;;19.09;42.68;102330.09;5083263;28;20118;-39
2023/04/20 02:39:03;;;;;;;6.97;4.65;;;;;;;19.10;42.46;102322.91;5083887;28;20039;-37
2023/04/20 02:41:29;;;;;;;7.32;5.18;;;;;;;19.11;41.96;102332.66;5081913;28;20056;-40
2023/04/20 02:43:56;;;;;;;7.18;4.93;;;;;;;19.11;42.02;102328.13;5077326;28;20059;-37
2023/04/20 02:46:23;;;;;;;7.20;4.75;;;;;;;19.12;41.97;102318.25;5078470;28;20055;-37
2023/04/20 02:48:49;;;;;;;7.75;4.53;;;;;;;19.12;41.93;102315.56;5084935;28;20343;-40
2023/04/20 02:51:16;;;;;;;8.05;5.10;;;;;;;19.13;42.09;102315.41;5083678;28;20040;-39
2023/04/20 02:53:42;;;;;;;6.72;4.55;;;;;;;19.13;42.35;102304.66;5081724;28;20093;-37
2023/04/20 02:56:09;;;;;;;7.28;4.68;;;;;;;19.13;42.67;102301.97;5085865;28;20053;-38
2023/04/20 02:58:36;;;;;;;6.65;4.35;;;;;;;19.15;42.07;102297.34;5082252;28;20044;-38
2023/04/20 03:01:06;;;;;;;6.40;4.32;;;;;;;19.16;42.47;102299.03;5082955;28;20091;-40
2023/04/20 03:03:32;;;;;;;7.03;4.20;;;;;;;19.16;42.21;102290.97;5079349;28;20059;-39
2023/04/20 03:05:59;;;;;;;6.30;4.05;;;;;;;19.16;42.09;102296.34;5086092;28;20312;-40
2023/04/20 03:08:26;;;;;;;6.05;4.18;;;;;;;19.17;42.24;102294.53;5082976;28;20144;-39
2023/04/20 03:10:52;;;;;;;6.68;3.90;;;;;;;19.19;42.38;102287.19;5082803;28;20059;-38
2023/04/20 03:13:19;;;;;;;6.97;4.45;;;;;;;19.23;41.90;102284.13;5081921;28;20057;-37
2023/04/20 03:15:46;;;;;;;6.10;3.70;;;;;;;19.27;42.34;102283.88;5082500;28;20048;-40
2023/04/20 03:18:12;;;;;;;5.82;3.97;;;;;;;19.30;42.28;102278.25;5083640;28;20048;-39
2023/04/20 03:20:39;;;;;;;6.28;4.07;;;;;;;19.31;41.97;102266.53;5082418;28;20049;-36
2023/04/20 03:23:05;;;;;;;5.82;3.78;;;;;;;19.34;41.77;102268.97;5084441;28;20358;-38
2023/04/20 03:25:32;;;;;;;6.65;4.10;;;;;;;19.35;42.44;102267.97;5085351;28;20044;-37
2023/04/20 03:27:59;;;;;;;6.03;3.90;;;;;;;19.36;42.55;102257.06;5083911;28;20036;-39
2023/04/20 03:30:25;;;;;;;5.60;3.80;;;;;;;19.37;42.04;102260.63;5084293;28;20083;-38
2023/04/20 03:32:52;;;;;;;4.97;3.30;;;;;;;19.37;41.66;102255.25;5082237;28;20048;-40
2023/04/20 03:35:19;;;;;;;5.25;3.40;;;;;;;19.37;41.80;102260.63;5080079;28;20399;-39
2023/04/20 03:37:46;;;;;;;6.85;4.13;;;;;;;19.36;42.48;102257.06;5081592;28;20056;-40
2023/04/20 03:40:12;;;;;;;5.00;3.10;;;;;;;19.36;42.21;102251.69;5081733;28;20055;-38
2023/04/20 03:42:40;;;;;;;6.10;3.78;;;;;;;19.36;42.08;102246.31;5082181;28;20130;-36
2023/04/20 03:45:07;;;;;;;6.65;4.30;;;;;;;19.35;41.82;102249.16;5085533;28;20055;-36
2023/04/20 03:47:33;;;;;;;5.40;3.72;;;;;;;19.34;42.45;102245.63;5082961;28;20045;-38
2023/04/20 03:50:00;;;;;;;5.50;3.78;;;;;;;19.32;41.51;102244.03;5084202;28;20140;-40
2023/04/20 03:52:26;;;;;;;4.60;3.13;;;;;;;19.31;42.00;102243.19;5085249;28;20571;-36
2023/04/20 03:54:53;;;;;;;6.55;3.58;;;;;;;19.30;41.97;102251.38;5080888;28;20054;-39
2023/04/20 03:57:19;;;;;;;7.95;3.80;;;;;;;19.28;42.38;102243.41;5080276;28;20044;-39
2023/04/20 03:59:46;;;;;;;5.13;3.40;;;;;;;19.27;42.34;102246.25;5082436;28;20043;-39
2023/04/20 04:02:12;;;;;;;5.60;3.30;;;;;;;19.24;42.37;102237.44;5079173;28;20335;-38
2023/04/20 04:04:40;;;;;;;5.95;3.20;;;;;;;19.25;42.60;102240.97;5079098;28;20060;-39
2023/04/20 04:07:06;;;;;;;6.70;3.85;;;;;;;19.26;42.35;102233.75;5086330;28;20061;-40
2023/04/20 04:09:33;;;;;;;9.80;4.03;;;;;;;19.23;42.47;102219.63;5080957;28;20342;-37
2023/04/20 04:12:00;;;;;;;10.48;4.28;;;;;;;19.23;42.35;102210.69;5081535;28;20051;-40
2023/04/20 04:14:27;;;;;;;7.63;4.63;;;;;;;19.23;42.09;102219.63;5078091;28;20052;-37
2023/04/20 04:16:54;;;;;;;9.00;4.50;;;;;;;19.22;42.60;102219.75;5075353;28;20044;-39
2023/04/20 04:19:21;;;;;;;11.25;4.63;;;;;;;19.20;42.32;102211.81;5078339;28;20048;-39
2023/04/20 04:21:48;;;;;;;7.55;3.85;;;;;;;19.20;42.28;102205.56;5080055;28;20130;-37
2023/04/20 04:24:16;;;;;;;9.55;4.43;;;;;;;19.19;42.17;102193.13;5081499;28;20370;-40
2023/04/20 04:26:42;;;;;;;9.38;4.82;;;;;;;19.16;41.83;102188.84;5081937;28;20048;-40
2023/04/20 04:29:10;;;;;;;9.05;4.78;;;;;;;19.15;42.42;102191.69;5081676;28;20052;-41
2023/04/20 04:31:36;;;;;;;9.68;5.40;;;;;;;19.12;42.37;102178.50;5082065;28;20044;-37
2023/04/20 04:34:03;;;;;;;11.65;5.82;;;;;;;19.09;42.58;102184.97;5085482;28;20044;-37
2023/04/20 04:36:31;;;;;;;14.30;5.53;;;;;;;19.05;42.48;102190.72;5077952;28;20052;-39
2023/04/20 04:38:58;;;;;;;13.30;5.40;;;;;;;19.00;42.98;102180.38;5081414;28;20088;-37
2023/04/20 04:41:24;;;;;;;17.23;6.50;;;;;;;18.97;42.97;102172.53;5082302;28;20084;-40
2023/04/20 04:43:51;;;;;;;11.65;5.38;;;;;;;18.94;43.02;102175.50;5080942;28;20052;-38
2023/04/20 04:46:17;;;;;;;12.52;5.45;;;;;;;18.88;42.79;102176.84;5084510;28;20060;-39
2023/04/20 04:48:45;;;;;;;12.85;5.90;;;;;;;18.82;42.88;102169.31;5084888;28;20044;-40
2023/04/20 04:51:12;;;;;;;11.98;5.82;;;;;;;18.78;43.34;102169.69;5083497;28;20482;-41
2023/04/20 04:53:38;;;;;;;12.95;6.03;;;;;;;18.73;43.21;102179.00;5084636;28;20079;-39
2023/04/20 04:56:05;;;;;;;13.48;6.75;;;;;;;18.68;43.49;102174.91;5085534;28;20127;-40
2023/04/20 04:58:32;;;;;;;12.57;6.22;;;;;;;18.63;43.78;102171.78;5084303;28;20423;-37
2023/04/20 05:00:59;;;;;;;12.57;6.40;;;;;;;18.59;43.58;102176.53;5086120;28;20059;-40
2023/04/20 05:03:25;;;;;;;14.43;6.88;;;;;;;18.57;43.46;102164.19;5090530;28;20052;-38
2023/04/20 05:05:52;;;;;;;12.77;6.28;;;;;;;18.51;43.95;102162.88;5090054;28;20051;-39
2023/04/20 05:08:20;;;;;;;14.20;7.00;;;;;;;18.47;43.98;102164.09;5090560;28;20058;-41
2023/04/20 05:10:46;;;;;;;13.93;6.60;;;;;;;18.42;44.15;102167.16;5084153;28;20041;-40
2023/04/20 05:13:13;;;;;;;12.30;6.38;;;;;;;18.40;43.95;102162.88;5085980;28;20083;-39
2023/04/20 05:15:39;;;;;;;12.30;6.63;;;;;;;18.38;44.16;102157.66;5081922;28;20062;-39
2023/04/20 05:18:09;;;;;;;13.00;6.55;;;;;;;18.35;44.43;102157.03;5080258;28;20051;-38
2023/04/20 05:20:35;;;;;;;16.98;7.28;;;;;;;18.33;44.43;102169.72;5085565;28;20051;-38
2023/04/20 05:23:02;;;;;;;14.70;6.72;;;;;;;18.30;44.27;102168.16;5085418;28;20048;-40
2023/04/20 05:25:30;;;;;;;16.48;7.93;;;;;;;18.27;44.53;102165.72;5079782;28;20142;-40
2023/04/20 05:27:56;;;;;;;12.80;7.45;;;;;;;18.28;44.63;102167.41;5081334;28;20342;-37
2023/04/20 05:30:23;;;;;;;16.52;7.90;;;;;;;18.32;44.34;102168.03;5081299;28;20131;-39
2023/04/20 05:32:50;;;;;;;13.48;7.57;;;;;;;18.41;43.88;102183.38;5079980;28;20083;-40
2023/04/20 05:35:18;;;;;;;14.45;8.00;;;;;;;18.49;43.56;102178.25;5078186;28;20470;-37
2023/04/20 05:37:46;;;;;;;18.42;8.32;;;;;;;18.57;43.64;102174.94;5082751;28;20344;-38
2023/04/20 05:40:14;;;;;;;14.00;7.28;;;;;;;18.64;43.45;102184.22;5080118;28;20052;-39
2023/04/20 05:42:41;;;;;;;13.88;8.32;;;;;;;18.68;43.26;102181.16;5080168;28;20335;-41
2023/04/20 05:45:08;;;;;;;14.95;7.78;;;;;;;18.72;43.07;102168.34;5078162;28;20388;-40
2023/04/20 05:47:35;;;;;;;13.35;7.35;;;;;;;18.74;43.13;102164.56;5077821;28;20080;-40
2023/04/20 05:50:01;;;;;;;15.20;8.05;;;;;;;18.79;43.17;102183.00;5078176;28;20063;-39
2023/04/20 05:52:28;;;;;;;14.43;7.65;;;;;;;18.83;43.08;102172.84;5081565;28;20048;-39
2023/04/20 05:54:54;;;;;;;14.90;8.40;;;;;;;18.88;42.47;102182.22;5077358;28;20052;-39
2023/04/20 05:57:23;;;;;;;13.38;7.95;;;;;;;18.94;42.64;102180.88;5076974;28;20040;-38
2023/04/20 05:59:50;;;;;;;14.60;8.00;;;;;;;18.96;43.07;102182.44;5079538;28;20431;-40
2023/04/20 06:02:16;;;;;;;12.93;7.22;;;;;;;18.99;42.68;102197.47;5080735;28;20046;-39
2023/04/20 06:04:43;;;;;;;14.85;7.53;;;;;;;19.02;42.46;102188.31;5084047;28;20105;-39
2023/04/20 06:07:10;;;;;;;13.35;7.70;;;;;;;19.04;42.62;102172.91;5080423;28;20059;-38
2023/04/20 06:09:36;;;;;;;13.68;7.32;;;;;;;19.05;42.10;102164.69;5079546;28;20403;-37
2023/04/20 06:12:03;;;;;;;14.85;7.63;;;;;;;19.05;42.35;102167.38;5077707;28;20044;-40
2023/04/20 06:14:30;;;;;;;13.43;7.25;;;;;;;19.05;42.64;102170.06;5077443;28;20461;-37
2023/04/20 06:16:56;;;;;;;13.98;7.50;;;;;;;19.05;42.38;102172.75;5083439;28;20469;-41
2023/04/20 06:19:23;;;;;;;12.23;7.07;;;;;;;19.07;42.50;102167.28;5078769;28;20071;-41
2023/04/20 06:21:49;;;;;;;13.52;7.32;;;;;;;19.07;42.56;102176.19;5079276;28;20045;-39
2023/04/20 06:24:16;;;;;;;13.38;7.75;;;;;;;19.06;42.81;102155.69;5082116;28;20048;-38
2023/04/20 06:26:43;;;;;;;14.25;7.25;;;;;;;19.08;42.41;102155.53;5083428;28;20040;-40
2023/04/20 06:29:09;;;;;;;12.68;7.40;;;;;;;19.07;42.05;102149.31;5078604;28;20431;-38
2023/04/20 06:31:36;;;;;;;12.90;7.80;;;;;;;19.07;42.22;102149.31;5081752;28;20368;-38
2023/04/20 06:34:02;;;;;;;11.05;6.45;;;;;;;19.07;42.54;102146.63;5079497;28;20056;-37
2023/04/20 06:36:30;;;;;;;14.05;7.57;;;;;;;19.07;42.17;102157.38;5081075;28;20052;-40
2023/04/20 06:38:56;;;;;;;12.75;7.53;;;;;;;19.07;42.45;102149.31;5087702;28;20093;-39
2023/04/20 06:41:23;;;;;;;13.00;7.35;;;;;;;19.05;42.40;102148.56;5081510;28;20146;-37
2023/04/20 06:43:50;;;;;;;11.90;7.10;;;;;;;19.04;42.06;102137.97;5081415;28;20467;-41
2023/04/20 06:46:17;;;;;;;11.85;7.50;;;;;;;19.06;42.27;102138.72;5082412;28;20050;-40
2023/04/20 06:48:43;;;;;;;11.98;7.25;;;;;;;19.04;42.48;102144.19;5078306;28;20048;-38
2023/04/20 06:51:11;;;;;;;12.32;6.88;;;;;;;19.05;42.18;102145.03;5083199;28;20054;-37
2023/04/20 06:53:38;;;;;;;12.23;6.80;;;;;;;19.03;42.47;102147.03;5087581;28;20458;-40
2023/04/20 06:56:05;;;;;;;13.93;6.55;;;;;;;19.02;42.44;102146.16;5083869;28;20525;-40
2023/04/20 06:58:32;;;;;;;12.88;6.65;;;;;;;19.02;42.52;102138.09;5084600;28;20043;-38
2023/04/20 07:00:58;;;;;;;12.38;6.75;;;;;;;19.03;42.84;102139.81;5081156;28;20459;-38
2023/04/20 07:03:25;;;;;;;10.77;6.40;;;;;;;19.05;42.00;102145.88;5084006;28;20069;-40
2023/04/20 07:05:52;;;;;;;11.43;6.78;;;;;;;19.06;41.94;102155.69;5078004;28;20055;-37
2023/04/20 07:08:19;;;;;;;9.70;6.10;;;;;;;19.10;41.78;102159.81;5084096;28;20055;-38
2023/04/20 07:10:45;;;;;;;9.85;5.82;;;;;;;19.12;41.91;102148.94;5078135;28;20076;-38
2023/04/20 07:13:12;;;;;;;11.50;6.38;;;;;;;19.15;41.78;102154.06;5082189;28;20048;-41
2023/04/20 07:15:38;;;;;;;9.40;5.57;;;;;;;19.17;41.85;102152.91;5078941;28;20063;-39
2023/04/20 07:18:05;;;;;;;10.25;6.03;;;;;;;19.20;41.77;102152.66;5079102;28;20047;-37
2023/04/20 07:20:32;;;;;;;11.80;6.22;;;;;;;19.22;41.50;102148.03;5080112;28;20443;-38
2023/04/20 07:22:58;;;;;;;11.10;6.18;;;;;;;19.26;41.47;102154.00;5082225;28;20056;-40
2023/04/20 07:25:26;;;;;;;9.98;5.97;;;;;;;19.29;41.85;102153.72;5081989;28;20052;-41
2023/04/20 07:27:52;;;;;;;11.35;5.93;;;;;;;19.30;41.43;102144.69;5077697;28;20090;-40
2023/04/20 07:30:19;;;;;;;10.30;6.35;;;;;;;19.30;41.28;102141.16;5083163;28;20055;-38
2023/04/20 07:32:46;;;;;;;9.07;6.10;;;;;;;19.28;42.11;102143.97;5078565;28;20047;-41
2023/04/20 07:35:12;;;;;;;8.38;5.00;;;;;;;19.24;41.59;102135.28;5080417;28;20048;-40
2023/04/20 07:37:39;;;;;;;9.50;5.40;;;;;;;19.20;41.74;102149.97;5084709;28;20048;-38
2023/04/20 07:40:07;;;;;;;8.85;5.35;;;;;;;19.18;41.64;102160.03;5086728;28;20051;-37
2023/04/20 07:42:35;;;;;;;10.27;5.78;;;;;;;19.15;41.82;102159.44;5084386;28;20446;-38
2023/04/20 07:45:04;;;;;;;10.15;5.68;;;;;;;19.14;41.51;102155.88;5086160;28;20163;-41
2023/04/20 07:47:32;;;;;;;8.63;5.28;;;;;;;19.12;41.58;102163.22;5089485;28;20352;-37
2023/04/20 07:49:58;;;;;;;9.20;5.07;;;;;;;19.11;41.81;102158.81;5089106;28;20171;-37
2023/04/20 07:52:25;;;;;;;10.00;5.30;;;;;;;19.10;41.77;102154.44;5087290;28;20048;-38
2023/04/20 07:54:56;;;;;;;7.15;4.72;;;;;;;19.08;42.03;102156.38;5089745;28;20071;-41
2023/04/20 07:57:23;;;;;;;8.35;5.22;;;;;;;19.06;42.34;102149.47;5086154;28;20327;-37
2023/04/20 07:59:50;;;;;;;8.43;4.85;;;;;;;19.05;41.67;102155.78;5090021;28;20083;-37
2023/04/20 08:02:17;;;;;;;8.93;4.95;;;;;;;19.02;41.85;102156.91;5085035;28;20134;-37
2023/04/20 08:04:45;;;;;;;8.43;4.70;;;;;;;18.98;41.83;102167.06;5084449;28;20394;-39
2023/04/20 08:07:12;;;;;;;7.45;4.93;;;;;;;18.95;42.03;102166.47;5078050;28;20127;-39
2023/04/20 08:09:39;;;;;;;7.40;4.40;;;;;;;18.89;42.33;102156.22;5084187;28;20083;-38
2023/04/20 08:12:06;;;;;;;8.27;4.75;;;;;;;18.83;42.34;102146.84;5082168;28;20093;-38
2023/04/20 08:14:33;;;;;;;6.22;4.20;;;;;;;18.79;42.38;102140.00;5083435;28;20052;-37
2023/04/20 08:16:59;;;;;;;7.97;4.65;;;;;;;18.73;42.51;102137.81;5081638;28;20052;-38
2023/04/20 08:19:26;;;;;;;7.80;4.70;;;;;;;18.68;42.53;102146.22;5080863;28;20063;-38
2023/04/20 08:21:53;;;;;;;10.93;5.07;;;;;;;18.62;42.31;102144.06;5079181;28;20439;-37
2023/04/20 08:24:19;;;;;;;7.28;4.10;;;;;;;18.56;43.18;102144.56;5081662;28;20439;-36
2023/04/20 08:26:46;;;;;;;8.32;4.43;;;;;;;18.51;43.03;102138.72;5079782;28;20051;-37
2023/04/20 08:29:13;;;;;;;7.32;4.07;;;;;;;18.44;43.29;102124.94;5082876;28;20047;-38
2023/04/20 08:31:39;;;;;;;7.22;4.43;;;;;;;18.42;43.35;102126.06;5080606;28;20142;-39
2023/04/20 08:34:06;;;;;;;7.43;4.07;;;;;;;18.39;43.16;102128.97;5082665;28;20127;-38
2023/04/20 08:36:33;;;;;;;6.43;4.13;;;;;;;18.34;43.14;102131.19;5084674;28;20045;-40
2023/04/20 08:39:11;;;;;;;6.97;4.18;;;;;;;18.30;43.95;102137.78;5079852;28;20389;-38
2023/04/20 08:41:38;;;;;;;6.97;4.28;;;;;;;18.27;43.85;102127.28;5081826;28;20048;-39
2023/04/20 08:44:06;;;;;;;11.80;3.70;;;;;;;18.24;43.43;102120.31;5080755;28;20048;-40
2023/04/20 08:46:33;;;;;;;6.35;3.72;;;;;;;18.21;43.91;102117.88;5080506;28;20055;-38
2023/04/20 08:49:02;;;;;;;7.28;4.35;;;;;;;18.20;43.56;102126.91;5086835;28;20044;-40
2023/04/20 08:51:31;;;;;;;7.43;3.95;;;;;;;18.17;44.05;102122.66;5080627;28;20167;-38
2023/04/20 08:54:04;;;;;;;6.15;3.80;;;;;;;18.15;44.08;102129.97;5084277;28;20048;-38
2023/04/20 08:56:40;;;;;;;7.00;4.03;;;;;;;18.13;43.85;102134.63;5078005;28;20098;-38
2023/04/20 08:59:10;;;;;;;6.88;3.97;;;;;;;18.13;44.30;102123.00;5083939;28;20049;-37
2023/04/20 09:01:39;;;;;;;6.20;4.35;;;;;;;18.12;44.35;102124.84;5079278;28;20072;-39
2023/04/20 09:04:23;;;;;;;6.82;4.10;;;;;;;18.11;43.99;102125.84;5078761;28;20059;-37
2023/04/20 09:06:54;;;;;;;6.65;3.90;;;;;;;18.11;43.98;102125.84;5078346;28;20355;-37
2023/04/20 09:09:23;;;;;;;8.00;3.97;;;;;;;18.11;44.41;102117.78;5082055;28;20053;-38
2023/04/20 09:12:07;;;;;;;6.38;3.80;;;;;;;18.11;44.13;102119.63;5080327;28;20384;-40
2023/04/20 09:14:45;;;;;;;6.47;4.00;;;;;;;18.11;44.01;102124.97;5085131;28;20048;-39
2023/04/20 09:17:13;;;;;;;6.97;3.97;;;;;;;18.11;44.20;102117.78;5084879;28;20052;-37
2023/04/20 09:19:43;;;;;;;6.75;4.10;;;;;;;18.12;44.31;102116.78;5081794;28;20044;-37
2023/04/20 09:22:09;;;;;;;4.97;3.33;;;;;;;18.12;43.96;102108.75;5081592;28;20056;-37
2023/04/20 09:24:37;;;;;;;5.43;3.50;;;;;;;18.15;44.25;102104.97;5079442;28;20071;-37
2023/04/20 09:27:17;;;;;;;6.28;3.67;;;;;;;18.15;44.50;102095.09;5076455;28;20054;-39
2023/04/20 09:29:56;;;;;;;5.32;3.30;;;;;;;18.20;43.84;102092.88;5082605;28;20074;-38
2023/04/20 09:32:24;;;;;;;4.65;3.25;;;;;;;18.24;44.20;102097.03;5086216;28;20048;-39
2023/04/20 09:34:50;;;;;;;6.20;3.50;;;;;;;18.26;43.95;102088.88;5083327;28;20057;-40
2023/04/20 09:37:17;;;;;;;4.85;3.38;;;;;;;18.32;44.13;102098.22;5084810;28;20143;-38
2023/04/20 09:39:44;;;;;;;6.05;3.60;;;;;;;18.35;44.00;102098.84;5080549;28;20068;-40
2023/04/20 09:42:13;;;;;;;5.93;3.40;;;;;;;18.39;43.82;102105.66;5084056;28;20347;-40
2023/04/20 09:44:39;;;;;;;5.50;3.55;;;;;;;18.44;43.92;102100.75;5083149;28;20417;-40
2023/04/20 09:47:07;;;;;;;5.20;3.35;;;;;;;18.48;43.74;102093.31;5082887;28;20159;-39
2023/04/20 09:49:34;;;;;;;6.40;3.20;;;;;;;18.54;43.62;102091.97;5084395;28;20054;-41
2023/04/20 09:52:02;;;;;;;5.20;3.25;;;;;;;18.55;43.16;102089.16;5086638;28;20338;-39
2023/04/20 09:54:29;;;;;;;5.57;3.53;;;;;;;18.60;43.60;102080.72;5080413;28;20088;-37
2023/04/20 09:57:00;;;;;;;5.47;3.47;;;;;;;18.63;43.41;102065.19;5080414;28;20044;-38
2023/04/20 09:59:27;;;;;;;4.78;3.22;;;;;;;18.68;43.03;102067.50;5081806;28;20364;-40
2023/04/20 10:01:54;;;;;;;7.03;3.88;;;;;;;18.70;42.84;102082.56;5080022;28;20415;-39
2023/04/20 10:04:21;;;;;;;4.30;3.00;;;;;;;18.74;43.22;102083.16;5095791;28;20109;-37
2023/04/20 10:06:56;;;;;;;6.78;3.42;;;;;;;18.78;43.14;102073.84;5079490;28;20178;-40
2023/04/20 10:09:25;;;;;;;3.65;2.47;;;;;;;18.81;42.83;102064.66;5080549;28;20036;-37
2023/04/20 10:11:52;;;;;;;3.63;2.53;;;;;;;18.82;42.14;102071.75;5083582;28;20045;-38
2023/04/20 10:14:24;;;;;;;3.90;2.90;;;;;;;18.83;42.43;102071.63;5081004;28;20129;-40
2023/04/20 10:17:03;;;;;;;6.22;3.20;;;;;;;18.85;42.56;102061.59;5077770;28;20529;-37
2023/04/20 10:19:43;;;;;;;3.40;2.25;;;;;;;18.87;42.19;102058.78;5079949;28;20042;-38
2023/04/20 10:22:12;;;;;;;3.78;2.50;;;;;;;18.88;42.14;102055.13;5081924;28;20047;-40
2023/04/20 10:24:39;;;;;;;5.80;2.50;;;;;;;18.88;42.42;102052.44;5079407;28;20079;-40
2023/04/20 10:27:16;;;;;;;4.13;2.30;;;;;;;18.85;42.39;102047.31;5083097;28;20123;-40
2023/04/20 10:29:43;;;;;;;4.03;2.38;;;;;;;18.85;42.14;102041.94;5084399;28;20040;-38
2023/04/20 10:32:28;;;;;;;3.90;2.40;;;;;;;18.82;42.60;102048.44;5082729;28;20083;-41
2023/04/20 10:35:03;;;;;;;3.67;2.10;;;;;;;18.82;42.83;102043.06;5080946;28;20080;-41
2023/04/20 10:37:30;;;;;;;4.55;2.70;;;;;;;18.82;42.57;102042.22;5080152;28;20135;-40
2023/04/20 10:39:58;;;;;;;4.25;2.60;;;;;;;18.82;42.76;102037.69;5087077;28;20036;-41
2023/04/20 10:42:28;;;;;;;3.40;2.20;;;;;;;18.82;42.67;102035.00;5086113;28;20474;-40
2023/04/20 10:44:55;;;;;;;3.17;2.30;;;;;;;18.85;42.34;102041.94;5078946;28;20059;-40
2023/04/20 10:47:30;;;;;;;5.25;2.15;;;;;;;18.87;42.73;102045.34;5085616;28;20077;-40
2023/04/20 10:50:08;;;;;;;4.82;2.60;;;;;;;18.90;42.35;102039.72;5083490;28;20049;-39
2023/04/20 10:52:40;;;;;;;3.95;2.25;;;;;;;18.93;42.39;102034.06;5085273;28;20055;-40
2023/04/20 10:55:21;;;;;;;4.05;2.55;;;;;;;18.91;42.02;102031.53;5074760;28;20163;-37
2023/04/20 10:57:49;;;;;;;3.85;2.38;;;;;;;18.94;41.87;102035.81;5084040;28;20455;-38
2023/04/20 11:00:20;;;;;;;5.30;2.33;;;;;;;18.95;42.54;102042.88;5079159;28;20541;-41
2023/04/20 11:02:49;;;;;;;3.10;2.30;;;;;;;18.96;42.18;102028.44;5080879;28;20052;-39
2023/04/20 11:05:17;;;;;;;5.45;2.17;;;;;;;18.97;42.41;102022.97;5079397;28;20048;-40
2023/04/20 11:08:02;;;;;;;3.53;2.30;;;;;;;18.97;42.15;102016.72;5083069;28;20044;-40
2023/04/20 11:10:40;;;;;;;4.72;2.58;;;;;;;18.98;42.37;102013.91;5082859;28;20109;-37
2023/04/20 11:13:18;;;;;;;3.28;2.42;;;;;;;18.98;42.42;102010.38;5083401;28;20052;-39
2023/04/20 11:15:45;;;;;;;3.22;2.20;;;;;;;18.97;42.52;102011.34;5081959;28;20055;-38
2023/04/20 11:18:11;;;;;;;4.07;2.33;;;;;;;18.95;42.15;102000.72;5081222;28;20075;-40
2023/04/20 11:20:54;;;;;;;4.05;2.38;;;;;;;18.90;42.52;102005.66;5079901;28;20063;-37
2023/04/20 11:23:23;;;;;;;3.40;2.20;;;;;;;18.89;42.60;102006.63;5079411;28;20055;-40
2023/04/20 11:25:56;;;;;;;3.17;1.98;;;;;;;18.86;42.52;102003.38;5083142;28;20170;-38